Time;durP1;ratioP1;P1;durP2;ratioP2;P2;SDS_P1;SDS_P2;PMS_P1;PMS_P2;Temp;Humidity;BMP_temperature;BMP_pressure;BME280_temperature;BME280_humidity;BME280_pressure;Samples;Min_cycle;Max_cycle;Signal;HPM_P1;HPM_P2
2023/01/06 00:01:53;;;;;;;9.82;3.92;;;7.80;99.90;;;;;;5011826;28;20201;-77
2023/01/06 00:04:19;;;;;;;10.32;3.58;;;7.80;99.90;;;;;;5013508;28;20185;-76
2023/01/06 00:06:45;;;;;;;10.18;5.22;;;7.70;99.90;;;;;;5012444;28;20185;-76
2023/01/06 00:09:10;;;;;;;7.97;4.30;;;7.60;99.90;;;;;;5012063;28;20227;-76
2023/01/06 00:11:36;;;;;;;14.38;4.75;;;7.60;99.90;;;;;;5026859;28;20194;-76
2023/01/06 00:14:02;;;;;;;10.73;5.57;;;7.60;99.90;;;;;;5013665;28;20263;-76
2023/01/06 00:16:28;;;;;;;8.20;4.53;;;7.60;99.90;;;;;;5014174;28;20628;-76
2023/01/06 00:18:58;;;;;;;9.35;4.47;;;7.50;99.90;;;;;;5011895;28;20189;-76
2023/01/06 00:21:24;;;;;;;7.47;4.32;;;7.60;99.90;;;;;;5012999;28;20349;-76
2023/01/06 00:23:50;;;;;;;10.80;4.93;;;7.60;99.90;;;;;;5012509;28;20181;-76
2023/01/06 00:26:15;;;;;;;9.93;3.90;;;7.60;99.90;;;;;;5012936;28;20213;-77
2023/01/06 00:28:41;;;;;;;11.40;4.22;;;7.60;99.90;;;;;;5008278;28;20235;-77
2023/01/06 00:31:08;;;;;;;8.77;3.85;;;7.60;99.90;;;;;;5014596;28;20560;-77
2023/01/06 00:33:34;;;;;;;10.38;4.47;;;7.60;99.90;;;;;;5012325;28;20288;-77
2023/01/06 00:36:00;;;;;;;8.98;3.47;;;7.60;99.90;;;;;;5025471;28;20608;-77
2023/01/06 00:38:26;;;;;;;14.60;4.40;;;7.60;99.90;;;;;;5014692;28;20189;-77
2023/01/06 00:40:51;;;;;;;5.63;3.30;;;7.60;99.90;;;;;;5013922;28;20217;-77
2023/01/06 00:43:17;;;;;;;6.32;3.50;;;7.60;99.90;;;;;;5016472;28;20697;-77
2023/01/06 00:45:42;;;;;;;8.07;3.42;;;7.50;99.90;;;;;;5013522;28;20185;-77
2023/01/06 00:48:08;;;;;;;7.82;4.13;;;7.50;99.90;;;;;;5015669;28;20189;-76
2023/01/06 00:50:34;;;;;;;8.82;4.35;;;7.60;99.90;;;;;;5015519;28;20196;-77
2023/01/06 00:52:59;;;;;;;9.82;3.60;;;7.50;99.90;;;;;;5012994;28;20221;-77
2023/01/06 00:55:25;;;;;;;11.40;4.20;;;7.50;99.90;;;;;;5014744;28;20177;-76
2023/01/06 00:57:51;;;;;;;8.55;3.95;;;7.50;99.90;;;;;;5008734;28;20173;-75
2023/01/06 01:00:18;;;;;;;6.55;3.78;;;7.40;99.90;;;;;;5012140;28;20196;-75
2023/01/06 01:02:43;;;;;;;11.70;4.10;;;7.40;99.90;;;;;;5014592;28;20205;-75
2023/01/06 01:05:09;;;;;;;8.85;4.05;;;7.40;99.90;;;;;;5016253;28;21715;-75
2023/01/06 01:07:34;;;;;;;8.63;4.32;;;7.40;99.90;;;;;;5016239;28;20185;-75
2023/01/06 01:10:00;;;;;;;11.23;4.38;;;7.30;99.90;;;;;;5016493;28;20200;-75
2023/01/06 01:12:26;;;;;;;8.27;4.35;;;7.30;99.90;;;;;;5015970;28;20638;-75
2023/01/06 01:14:53;;;;;;;9.93;3.95;;;7.20;99.90;;;;;;5013414;28;20173;-77
2023/01/06 01:17:27;;;;;;;6.43;3.30;;;7.20;99.90;;;;;;5011124;28;20177;-76
2023/01/06 01:19:55;;;;;;;9.65;4.32;;;7.20;99.90;;;;;;5028747;28;20235;-76
2023/01/06 01:22:22;;;;;;;11.45;3.97;;;7.20;99.90;;;;;;5023126;28;20687;-76
2023/01/06 01:24:48;;;;;;;10.90;4.43;;;7.30;99.90;;;;;;5013055;28;20190;-75
2023/01/06 01:27:14;;;;;;;8.27;3.97;;;7.40;99.90;;;;;;5013917;28;20189;-76
2023/01/06 01:29:40;;;;;;;9.93;4.22;;;7.40;99.90;;;;;;5015028;28;20231;-76
2023/01/06 01:32:05;;;;;;;7.38;4.15;;;7.30;99.90;;;;;;5017500;28;20269;-76
2023/01/06 01:34:31;;;;;;;9.93;4.30;;;7.30;99.90;;;;;;5019707;28;20181;-76
2023/01/06 01:36:57;;;;;;;7.72;3.80;;;7.30;99.90;;;;;;5015488;28;20232;-76
2023/01/06 01:39:25;;;;;;;6.43;3.70;;;7.20;99.90;;;;;;5016847;28;20601;-76
2023/01/06 01:41:52;;;;;;;9.18;4.25;;;7.30;99.90;;;;;;5029044;28;20205;-76
2023/01/06 01:44:45;;;;;;;7.03;4.18;;;7.20;99.90;;;;;;5015982;28;20233;-76
2023/01/06 01:47:21;;;;;;;14.68;5.10;;;7.20;99.90;;;;;;5014943;28;20663;-75
2023/01/06 01:49:51;;;;;;;9.07;4.82;;;7.30;99.90;;;;;;5014037;28;20227;-75
2023/01/06 01:52:18;;;;;;;12.40;4.80;;;7.40;99.90;;;;;;5013263;28;20215;-76
2023/01/06 01:54:44;;;;;;;11.90;5.00;;;7.30;99.90;;;;;;5015019;28;20223;-75
2023/01/06 01:57:31;;;;;;;11.70;4.65;;;7.30;99.90;;;;;;5013575;28;20194;-76
2023/01/06 01:59:58;;;;;;;9.27;4.78;;;7.20;99.90;;;;;;5016683;28;20777;-75
2023/01/06 02:02:25;;;;;;;11.38;4.60;;;7.20;99.90;;;;;;5009970;28;20248;-75
2023/01/06 02:04:54;;;;;;;12.93;4.72;;;7.20;99.90;;;;;;5018610;28;20239;-75
2023/01/06 02:07:22;;;;;;;9.30;4.80;;;7.10;99.90;;;;;;5018051;28;20666;-75
2023/01/06 02:10:26;;;;;;;7.70;4.65;;;7.10;99.90;;;;;;5013947;28;20219;-74
2023/01/06 02:12:56;;;;;;;10.40;5.00;;;7.10;99.90;;;;;;5012243;28;20223;-75
2023/01/06 02:15:42;;;;;;;8.85;5.45;;;7.10;99.90;;;;;;5032438;28;20224;-75
2023/01/06 02:18:32;;;;;;;9.52;4.93;;;7.00;99.90;;;;;;5016485;28;20181;-75
2023/01/06 02:20:58;;;;;;;12.30;4.90;;;7.00;99.90;;;;;;5016103;28;20177;-75
2023/01/06 02:23:35;;;;;;;9.55;5.63;;;7.00;99.90;;;;;;5014640;28;20212;-75
2023/01/06 02:26:23;;;;;;;9.38;5.57;;;7.00;99.90;;;;;;5017808;28;20193;-75
2023/01/06 02:29:27;;;;;;;9.73;5.88;;;7.00;99.90;;;;;;5018071;28;20188;-75
2023/01/06 02:32:19;;;;;;;10.15;5.45;;;6.90;99.90;;;;;;5016036;28;20195;-75
2023/01/06 02:34:54;;;;;;;9.60;5.70;;;6.90;99.90;;;;;;5016895;28;20220;-76
2023/01/06 02:37:41;;;;;;;9.75;5.15;;;6.80;99.90;;;;;;5010605;28;20260;-76
2023/01/06 02:40:23;;;;;;;9.75;5.65;;;6.80;99.90;;;;;;5012358;28;20240;-76
2023/01/06 02:43:20;;;;;;;10.95;5.22;;;6.70;99.90;;;;;;5014110;28;20235;-76
2023/01/06 02:46:10;;;;;;;15.73;5.70;;;6.70;99.90;;;;;;5013281;28;20199;-75
2023/01/06 02:49:09;;;;;;;12.60;5.72;;;6.70;99.90;;;;;;5011021;28;20196;-76
2023/01/06 02:51:59;;;;;;;9.82;5.15;;;6.60;99.90;;;;;;5015330;28;20343;-75
2023/01/06 02:54:30;;;;;;;12.82;5.50;;;6.60;99.90;;;;;;5014232;28;20661;-76
2023/01/06 02:57:14;;;;;;;14.18;5.82;;;6.60;99.90;;;;;;5014087;28;20183;-76
2023/01/06 02:59:57;;;;;;;13.65;6.07;;;6.60;99.90;;;;;;5013034;28;20512;-76
2023/01/06 03:02:24;;;;;;;11.10;5.75;;;6.60;99.90;;;;;;5012565;28;20197;-76
2023/01/06 03:04:52;;;;;;;14.65;5.47;;;6.60;99.90;;;;;;5013871;28;20200;-76
2023/01/06 03:07:21;;;;;;;9.10;5.03;;;6.60;99.90;;;;;;5012451;28;20181;-76
2023/01/06 03:09:49;;;;;;;13.77;6.28;;;6.60;99.90;;;;;;5008968;28;20181;-76
2023/01/06 03:12:34;;;;;;;10.13;5.40;;;6.50;99.90;;;;;;5014773;28;20227;-76
2023/01/06 03:14:59;;;;;;;9.18;5.00;;;6.60;99.90;;;;;;5015760;28;20178;-76
2023/01/06 03:17:26;;;;;;;9.75;4.70;;;6.70;99.90;;;;;;5013357;28;20189;-76
2023/01/06 03:19:52;;;;;;;13.52;5.95;;;6.70;99.90;;;;;;5019436;28;20191;-76
2023/01/06 03:22:20;;;;;;;11.88;5.55;;;6.60;99.90;;;;;;5013548;28;20251;-76
2023/01/06 03:24:45;;;;;;;11.95;5.53;;;6.60;99.90;;;;;;5017016;28;20264;-76
2023/01/06 03:27:11;;;;;;;11.25;5.15;;;6.70;99.90;;;;;;5014817;28;20260;-75
2023/01/06 03:29:37;;;;;;;9.05;5.40;;;6.80;99.90;;;;;;5015794;28;20189;-76
2023/01/06 03:32:18;;;;;;;11.30;5.18;;;6.80;99.90;;;;;;5013715;28;20255;-76
2023/01/06 03:35:17;;;;;;;15.70;6.97;;;6.80;99.90;;;;;;5018325;28;20219;-76
2023/01/06 03:37:42;;;;;;;9.25;5.20;;;6.90;99.90;;;;;;5014520;28;20181;-76
2023/01/06 03:40:18;;;;;;;7.18;5.32;;;6.90;99.90;;;;;;5012402;28;20680;-76
2023/01/06 03:45:39;;;;;;;10.68;5.65;;;6.90;99.90;;;;;;5014303;28;20238;-76
2023/01/06 03:48:10;;;;;;;11.18;5.20;;;6.80;99.90;;;;;;5029799;28;20177;-76
2023/01/06 03:50:44;;;;;;;9.68;5.07;;;6.70;99.90;;;;;;5015234;28;20272;-76
2023/01/06 03:53:34;;;;;;;8.40;4.95;;;6.70;99.90;;;;;;5017475;28;20261;-76
2023/01/06 03:56:09;;;;;;;8.02;5.22;;;6.80;99.90;;;;;;5012268;28;20493;-76
2023/01/06 03:58:37;;;;;;;10.75;5.38;;;6.80;99.90;;;;;;5028837;28;20586;-76
2023/01/06 04:01:04;;;;;;;16.75;6.25;;;6.70;99.90;;;;;;5012570;28;20186;-76
2023/01/06 04:03:30;;;;;;;10.15;5.43;;;6.70;99.90;;;;;;5011777;28;20187;-76
2023/01/06 04:05:55;;;;;;;13.55;5.85;;;6.60;99.90;;;;;;5014560;28;20181;-76
2023/01/06 04:08:21;;;;;;;9.85;5.93;;;6.50;99.90;;;;;;5016197;28;20655;-76
2023/01/06 04:10:47;;;;;;;12.35;6.35;;;6.40;99.90;;;;;;5013402;28;20220;-76
2023/01/06 04:13:12;;;;;;;11.73;5.55;;;6.40;99.90;;;;;;5014086;28;20803;-77
2023/01/06 04:15:38;;;;;;;13.68;6.88;;;6.50;99.90;;;;;;5013610;28;20186;-76
2023/01/06 04:18:03;;;;;;;12.95;6.47;;;6.50;99.90;;;;;;5015361;28;20585;-77
2023/01/06 04:20:30;;;;;;;15.25;6.53;;;6.50;99.90;;;;;;5032711;28;20263;-77
2023/01/06 04:22:56;;;;;;;9.82;6.00;;;6.40;99.90;;;;;;5012418;28;20280;-76
2023/01/06 04:25:23;;;;;;;11.50;6.15;;;6.40;99.90;;;;;;5011002;28;20181;-77
2023/01/06 04:27:48;;;;;;;15.48;6.05;;;6.40;99.90;;;;;;5012293;28;20185;-76
2023/01/06 04:30:14;;;;;;;13.48;6.25;;;6.50;99.90;;;;;;5012094;28;20519;-76
2023/01/06 04:32:40;;;;;;;10.57;7.13;;;6.50;99.90;;;;;;5014117;28;20209;-76
2023/01/06 04:35:06;;;;;;;13.25;7.03;;;6.50;99.90;;;;;;5015127;28;20242;-77
2023/01/06 04:37:32;;;;;;;15.80;8.50;;;6.50;99.90;;;;;;5012399;28;20185;-77
2023/01/06 04:39:58;;;;;;;14.90;6.72;;;6.30;99.90;;;;;;5009559;28;20181;-76
2023/01/06 04:42:23;;;;;;;13.32;7.32;;;6.30;99.90;;;;;;5008913;28;20721;-76
2023/01/06 04:44:49;;;;;;;15.65;8.23;;;6.20;99.90;;;;;;5014470;28;20181;-76
2023/01/06 04:47:14;;;;;;;18.15;7.53;;;6.20;99.90;;;;;;5013971;28;20204;-75
2023/01/06 04:49:40;;;;;;;9.30;7.10;;;6.20;99.90;;;;;;5020408;28;20191;-76
2023/01/06 04:52:07;;;;;;;11.88;7.03;;;6.20;99.90;;;;;;5010959;28;20204;-76
2023/01/06 04:54:33;;;;;;;15.35;7.65;;;6.30;99.90;;;;;;5012750;28;20634;-76
2023/01/06 04:56:59;;;;;;;14.02;7.80;;;6.30;99.90;;;;;;5015037;28;20181;-76
2023/01/06 04:59:24;;;;;;;11.45;7.53;;;6.40;99.90;;;;;;5015968;28;20667;-76
2023/01/06 05:01:50;;;;;;;14.43;7.32;;;6.40;99.90;;;;;;5019600;28;20738;-75
2023/01/06 05:04:16;;;;;;;20.13;9.00;;;6.50;99.90;;;;;;5020211;28;20184;-76
2023/01/06 05:06:41;;;;;;;17.52;8.23;;;6.60;99.90;;;;;;5020464;28;20566;-76
2023/01/06 05:09:07;;;;;;;15.65;7.90;;;6.50;99.90;;;;;;5015452;28;20254;-76
2023/01/06 05:11:33;;;;;;;16.73;8.32;;;6.60;99.90;;;;;;5014723;28;20331;-76
2023/01/06 05:13:58;;;;;;;12.18;7.40;;;6.60;99.90;;;;;;5016195;28;20235;-76
2023/01/06 05:16:29;;;;;;;9.07;6.93;;;6.70;99.90;;;;;;5013622;28;20251;-76
2023/01/06 05:18:54;;;;;;;16.98;9.13;;;6.70;99.90;;;;;;5016519;28;20181;-76
2023/01/06 05:21:23;;;;;;;16.50;8.50;;;6.60;99.90;;;;;;5016436;28;20211;-76
2023/01/06 05:23:49;;;;;;;14.35;8.20;;;6.60;99.90;;;;;;5014678;28;20576;-76
2023/01/06 05:26:18;;;;;;;15.55;8.43;;;6.70;99.90;;;;;;5014903;28;20197;-76
2023/01/06 05:28:44;;;;;;;15.80;8.07;;;6.70;99.90;;;;;;5010179;28;20185;-76
2023/01/06 05:31:11;;;;;;;16.30;8.48;;;6.80;99.90;;;;;;5014312;28;20185;-76
2023/01/06 05:33:36;;;;;;;21.63;9.15;;;6.70;99.90;;;;;;5006930;28;20208;-76
2023/01/06 05:36:05;;;;;;;22.95;9.30;;;6.80;99.90;;;;;;5022149;28;20240;-76
2023/01/06 05:38:31;;;;;;;17.40;8.93;;;6.60;99.90;;;;;;5016163;28;20172;-76
2023/01/06 05:40:57;;;;;;;20.63;10.05;;;6.70;99.90;;;;;;5015868;28;20177;-76
2023/01/06 05:43:24;;;;;;;20.70;11.85;;;6.60;99.90;;;;;;5017770;28;20200;-76
2023/01/06 05:45:51;;;;;;;23.75;11.70;;;6.60;99.90;;;;;;5024129;28;20251;-76
2023/01/06 05:48:17;;;;;;;22.35;11.65;;;6.60;99.90;;;;;;5017443;28;20226;-76
2023/01/06 05:50:43;;;;;;;20.25;11.02;;;6.60;99.90;;;;;;5013191;28;20177;-77
2023/01/06 05:53:09;;;;;;;24.88;11.63;;;6.50;99.90;;;;;;5015315;28;20205;-76
2023/01/06 05:55:34;;;;;;;24.23;9.68;;;6.50;99.90;;;;;;5010020;28;20181;-77
2023/01/06 05:58:00;;;;;;;18.33;9.75;;;6.60;99.90;;;;;;5012306;28;20193;-76
2023/01/06 06:00:26;;;;;;;17.65;10.98;;;6.60;99.90;;;;;;5011943;28;20182;-77
2023/01/06 06:02:51;;;;;;;22.17;11.63;;;6.70;99.90;;;;;;5018152;28;20229;-76
2023/01/06 06:05:17;;;;;;;22.33;10.98;;;6.70;99.90;;;;;;5014616;28;20205;-77
2023/01/06 06:07:42;;;;;;;28.85;11.55;;;6.80;99.90;;;;;;5015812;28;20632;-77
2023/01/06 06:10:08;;;;;;;26.23;11.68;;;6.80;99.90;;;;;;5019879;28;20180;-77
2023/01/06 06:12:34;;;;;;;19.42;10.38;;;6.80;99.90;;;;;;5013677;28;20543;-77
2023/01/06 06:15:00;;;;;;;25.10;11.30;;;6.70;99.90;;;;;;5015227;28;20260;-77
2023/01/06 06:17:26;;;;;;;23.80;12.00;;;6.80;99.90;;;;;;5019745;28;20186;-76
2023/01/06 06:19:51;;;;;;;24.73;11.50;;;6.80;99.90;;;;;;5008671;28;20229;-76
2023/01/06 06:22:17;;;;;;;23.58;11.13;;;6.80;99.90;;;;;;5013320;28;20224;-76
2023/01/06 06:24:43;;;;;;;17.60;10.98;;;6.70;99.90;;;;;;5013538;28;20185;-76
2023/01/06 06:27:08;;;;;;;23.50;10.77;;;6.80;99.90;;;;;;5013855;28;20180;-77
2023/01/06 06:29:34;;;;;;;17.42;10.65;;;6.90;99.90;;;;;;5013027;28;20598;-76
2023/01/06 06:32:00;;;;;;;23.25;11.07;;;6.90;99.90;;;;;;5012470;28;20292;-76
2023/01/06 06:34:25;;;;;;;18.48;10.32;;;6.80;99.90;;;;;;5010331;28;20237;-75
2023/01/06 06:36:51;;;;;;;27.58;11.70;;;6.80;99.90;;;;;;5014488;28;20181;-75
2023/01/06 06:39:17;;;;;;;24.75;11.18;;;6.90;99.90;;;;;;5013045;28;20269;-76
2023/01/06 06:41:42;;;;;;;21.60;11.65;;;6.80;99.90;;;;;;5016161;28;20308;-75
2023/01/06 06:44:08;;;;;;;24.55;11.45;;;6.80;99.90;;;;;;5015518;28;20184;-76
2023/01/06 06:46:34;;;;;;;25.42;11.88;;;6.80;99.90;;;;;;5015566;28;20268;-75
2023/01/06 06:48:59;;;;;;;23.70;11.15;;;6.90;99.90;;;;;;5011788;28;20235;-75
2023/01/06 06:51:25;;;;;;;21.77;10.90;;;7.00;99.90;;;;;;5012823;28;20213;-78
2023/01/06 06:53:51;;;;;;;23.25;11.25;;;6.90;99.90;;;;;;5011712;28;20204;-80
2023/01/06 06:56:19;;;;;;;26.10;12.50;;;6.90;99.90;;;;;;5015044;28;20173;-78
2023/01/06 06:58:45;;;;;;;25.05;12.07;;;6.80;99.90;;;;;;5010449;28;20199;-78
2023/01/06 07:01:13;;;;;;;25.50;13.05;;;6.80;99.90;;;;;;5015222;28;20176;-78
2023/01/06 07:03:39;;;;;;;33.03;13.45;;;6.80;99.90;;;;;;5009898;28;20185;-77
2023/01/06 07:06:11;;;;;;;30.05;13.68;;;6.80;99.90;;;;;;5015041;28;20691;-78
2023/01/06 07:08:37;;;;;;;28.33;12.55;;;6.80;99.90;;;;;;5011566;28;20184;-77
2023/01/06 07:11:03;;;;;;;30.83;13.32;;;6.70;99.90;;;;;;5014700;28;20189;-78
2023/01/06 07:13:29;;;;;;;23.45;12.98;;;6.80;99.90;;;;;;5013935;28;20190;-77
2023/01/06 07:15:55;;;;;;;27.88;12.73;;;6.90;99.90;;;;;;5019649;28;20188;-78
2023/01/06 07:18:21;;;;;;;34.05;15.00;;;6.90;99.90;;;;;;5007700;28;20174;-77
2023/01/06 07:20:48;;;;;;;31.02;14.73;;;6.80;99.90;;;;;;5012873;28;20208;-77
2023/01/06 07:23:14;;;;;;;28.65;14.13;;;6.80;99.90;;;;;;5017103;28;20205;-78
2023/01/06 07:25:40;;;;;;;25.15;13.57;;;6.90;99.90;;;;;;5011525;28;20182;-78
2023/01/06 07:28:07;;;;;;;27.17;13.82;;;6.80;99.90;;;;;;5013630;28;20184;-78
2023/01/06 07:30:33;;;;;;;30.17;13.32;;;6.80;99.90;;;;;;5012595;28;20192;-79
2023/01/06 07:32:59;;;;;;;32.85;14.50;;;6.80;99.90;;;;;;5013446;28;20201;-78
2023/01/06 07:35:25;;;;;;;25.75;13.38;;;6.80;99.90;;;;;;5015745;28;20257;-78
2023/01/06 07:37:50;;;;;;;21.75;12.02;;;6.90;99.90;;;;;;5012131;28;20182;-78
2023/01/06 07:40:17;;;;;;;27.35;13.55;;;7.00;99.90;;;;;;5013179;28;20204;-76
2023/01/06 07:42:43;;;;;;;24.42;12.65;;;7.10;99.90;;;;;;5013507;28;20213;-77
2023/01/06 07:45:09;;;;;;;30.83;13.93;;;7.10;99.90;;;;;;5015559;28;20219;-76
2023/01/06 07:47:35;;;;;;;24.40;13.20;;;7.10;99.90;;;;;;5017286;28;20181;-77
2023/01/06 07:50:01;;;;;;;27.60;13.90;;;7.20;99.90;;;;;;5014687;28;20208;-76
2023/01/06 07:52:26;;;;;;;23.67;13.85;;;7.10;99.90;;;;;;5012402;28;20495;-76
2023/01/06 07:54:52;;;;;;;18.15;12.13;;;7.10;99.90;;;;;;5011474;28;20181;-76
2023/01/06 07:57:17;;;;;;;19.85;12.73;;;7.30;99.90;;;;;;5015071;28;20636;-76
2023/01/06 07:59:43;;;;;;;24.30;12.38;;;7.50;99.90;;;;;;5009000;28;20181;-75
2023/01/06 08:02:10;;;;;;;21.95;12.48;;;7.50;99.90;;;;;;5013478;28;20257;-75
2023/01/06 08:04:36;;;;;;;21.23;12.07;;;7.50;99.90;;;;;;5012314;28;20322;-75
2023/01/06 08:07:02;;;;;;;16.73;11.60;;;7.60;99.90;;;;;;5012129;28;20276;-75
2023/01/06 08:09:27;;;;;;;17.55;12.20;;;7.70;99.90;;;;;;5007290;28;20197;-75
2023/01/06 08:11:53;;;;;;;23.30;13.25;;;7.80;99.90;;;;;;5015081;28;20663;-75
2023/01/06 08:14:19;;;;;;;20.80;13.27;;;7.80;99.90;;;;;;5013256;28;20205;-75
2023/01/06 08:16:44;;;;;;;21.42;12.00;;;7.90;99.90;;;;;;5009379;28;20182;-74
2023/01/06 08:19:10;;;;;;;20.42;11.15;;;7.80;99.90;;;;;;5011971;28;20555;-74
2023/01/06 08:21:35;;;;;;;22.70;12.30;;;7.80;99.90;;;;;;5013170;28;20680;-74
2023/01/06 08:24:01;;;;;;;22.10;11.98;;;7.80;99.90;;;;;;5014111;28;20627;-75
2023/01/06 08:26:27;;;;;;;17.05;12.18;;;7.80;99.90;;;;;;5013332;28;20185;-75
2023/01/06 08:28:53;;;;;;;21.20;11.95;;;7.80;99.90;;;;;;5007910;28;20193;-74
2023/01/06 08:31:20;;;;;;;21.35;13.05;;;7.80;99.90;;;;;;5010893;28;20232;-75
2023/01/06 08:33:46;;;;;;;22.05;11.85;;;7.70;99.90;;;;;;5011922;28;20284;-76
2023/01/06 08:36:14;;;;;;;16.60;11.65;;;7.80;99.90;;;;;;5015193;28;20169;-75
2023/01/06 08:38:40;;;;;;;19.17;11.55;;;7.90;99.90;;;;;;5012083;28;20192;-74
2023/01/06 08:41:07;;;;;;;16.02;12.00;;;8.00;99.90;;;;;;5010826;28;20181;-76
2023/01/06 08:43:33;;;;;;;18.83;11.45;;;8.10;99.90;;;;;;5010986;28;20708;-74
2023/01/06 08:46:05;;;;;;;21.60;13.07;;;8.00;99.90;;;;;;5012802;28;20189;-75
2023/01/06 08:48:31;;;;;;;21.70;12.65;;;8.10;99.90;;;;;;5013218;28;20244;-78
2023/01/06 08:51:12;;;;;;;19.70;12.35;;;8.00;99.90;;;;;;5008885;28;20268;-76
2023/01/06 08:53:38;;;;;;;20.40;12.73;;;8.10;99.90;;;;;;5006912;28;20252;-76
2023/01/06 08:56:04;;;;;;;20.15;12.43;;;8.20;99.90;;;;;;5016693;28;20177;-76
2023/01/06 08:58:30;;;;;;;18.10;11.45;;;8.20;99.90;;;;;;5011034;28;20173;-76
2023/01/06 09:00:55;;;;;;;18.65;11.52;;;8.30;99.90;;;;;;5010894;28;20188;-76
2023/01/06 09:03:21;;;;;;;22.00;13.07;;;8.30;99.90;;;;;;5012525;28;20284;-77
2023/01/06 09:05:55;;;;;;;18.40;11.65;;;8.40;99.90;;;;;;5011068;28;20201;-75
2023/01/06 09:08:21;;;;;;;20.15;12.10;;;8.40;99.90;;;;;;5011507;28;20189;-75
2023/01/06 09:10:46;;;;;;;17.00;11.20;;;8.60;99.90;;;;;;5018148;28;20187;-74
2023/01/06 09:13:12;;;;;;;16.85;11.32;;;8.80;99.90;;;;;;5010582;28;20786;-75
2023/01/06 09:15:42;;;;;;;21.55;11.82;;;8.90;99.90;;;;;;5011800;28;20713;-74
2023/01/06 09:18:09;;;;;;;18.95;12.50;;;9.10;99.90;;;;;;5012778;28;20184;-75
2023/01/06 09:20:35;;;;;;;16.13;11.02;;;9.20;99.90;;;;;;5012321;28;20173;-74
2023/01/06 09:23:00;;;;;;;20.70;11.45;;;9.40;99.90;;;;;;5014661;28;20213;-74
2023/01/06 09:25:26;;;;;;;15.98;11.32;;;9.50;99.90;;;;;;5011960;28;20604;-75
2023/01/06 09:27:52;;;;;;;14.13;10.95;;;9.30;99.90;;;;;;5015461;28;20192;-74
2023/01/06 09:30:18;;;;;;;14.75;10.63;;;9.30;99.90;;;;;;5013423;28;20185;-77
2023/01/06 09:32:43;;;;;;;18.95;11.73;;;9.30;99.90;;;;;;5011549;28;20610;-76
2023/01/06 09:35:09;;;;;;;12.18;9.90;;;9.30;99.90;;;;;;5020310;28;20176;-76
2023/01/06 09:37:35;;;;;;;16.38;11.63;;;9.40;99.90;;;;;;5011926;28;20514;-76
2023/01/06 09:40:00;;;;;;;16.52;10.30;;;9.60;99.90;;;;;;5012165;28;20181;-76
2023/01/06 09:42:50;;;;;;;13.25;10.20;;;9.80;99.90;;;;;;5016591;28;20197;-76
2023/01/06 09:45:35;;;;;;;11.85;8.90;;;9.90;99.90;;;;;;5016175;28;20182;-76
2023/01/06 09:48:05;;;;;;;13.50;9.20;;;10.10;99.90;;;;;;5021428;28;20184;-76
2023/01/06 09:50:38;;;;;;;12.15;8.75;;;10.20;99.90;;;;;;5013697;28;20637;-76
2023/01/06 09:53:13;;;;;;;12.70;8.98;;;10.60;99.90;;;;;;5016154;28;20215;-78
2023/01/06 09:55:45;;;;;;;15.18;10.73;;;10.90;99.90;;;;;;5017275;28;20176;-78
2023/01/06 09:58:13;;;;;;;10.43;8.90;;;10.90;99.90;;;;;;5022953;28;20177;-79
2023/01/06 10:00:51;;;;;;;12.63;9.13;;;11.00;99.90;;;;;;5014652;28;20687;-78
2023/01/06 10:03:20;;;;;;;11.80;9.57;;;11.20;99.90;;;;;;5014836;28;20606;-78
2023/01/06 10:06:13;;;;;;;11.82;9.00;;;11.20;99.90;;;;;;5036380;28;20188;-78
2023/01/06 10:08:51;;;;;;;11.95;8.90;;;11.10;99.90;;;;;;5012796;28;20185;-78
2023/01/06 10:11:46;;;;;;;11.82;8.38;;;11.10;99.90;;;;;;5019920;28;20687;-78
2023/01/06 10:14:57;;;;;;;13.43;8.70;;;11.10;99.90;;;;;;5021187;28;20270;-78
2023/01/06 10:17:22;;;;;;;9.05;7.65;;;11.20;99.90;;;;;;5014114;28;20253;-79
2023/01/06 10:19:58;;;;;;;11.18;8.18;;;11.30;99.90;;;;;;5017538;28;20189;-78
2023/01/06 10:22:29;;;;;;;9.57;7.82;;;11.50;99.90;;;;;;5011753;28;20193;-78
2023/01/06 10:25:20;;;;;;;8.10;7.30;;;11.80;99.90;;;;;;5022575;28;20181;-78
2023/01/06 10:27:54;;;;;;;7.90;7.07;;;12.90;99.90;;;;;;5028714;28;20673;-77
2023/01/06 10:30:36;;;;;;;6.45;5.93;;;14.80;99.90;;;;;;5034143;28;20181;-78
2023/01/06 10:33:03;;;;;;;8.18;7.32;;;15.50;99.90;;;;;;5023128;28;20215;-78
2023/01/06 10:35:29;;;;;;;7.57;6.57;;;15.70;99.90;;;;;;5021480;28;20177;-78
2023/01/06 10:37:56;;;;;;;7.80;6.47;;;16.00;99.90;;;;;;5015622;28;20177;-78
2023/01/06 10:40:25;;;;;;;6.70;6.03;;;16.90;99.90;;;;;;5025755;28;20173;-78
2023/01/06 10:43:02;;;;;;;6.22;5.72;;;18.60;99.90;;;;;;5020648;28;20692;-78
2023/01/06 10:45:32;;;;;;;6.30;5.80;;;19.80;99.90;;;;;;5023956;28;20176;-78
2023/01/06 10:48:00;;;;;;;6.20;5.47;;;20.10;99.90;;;;;;5021339;28;20185;-78
2023/01/06 10:50:26;;;;;;;5.40;4.97;;;19.50;99.90;;;;;;5021000;28;20184;-78
2023/01/06 10:52:52;;;;;;;5.90;5.40;;;18.90;99.90;;;;;;5019494;28;20216;-78
2023/01/06 10:55:24;;;;;;;5.35;4.90;;;18.30;99.90;;;;;;5012502;28;20180;-78
2023/01/06 10:57:51;;;;;;;5.30;4.97;;;17.70;99.90;;;;;;5021394;28;20186;-78
2023/01/06 11:00:23;;;;;;;6.75;6.15;;;17.00;99.90;;;;;;5017085;28;20694;-78
2023/01/06 11:02:52;;;;;;;5.30;4.95;;;16.30;99.90;;;;;;5019842;28;20722;-78
2023/01/06 11:05:23;;;;;;;6.43;5.93;;;16.00;99.90;;;;;;5017044;28;20722;-78
2023/01/06 11:07:56;;;;;;;5.03;4.72;;;16.20;99.90;;;;;;5016619;28;20268;-78
2023/01/06 11:10:37;;;;;;;5.82;5.25;;;16.50;99.90;;;;;;5019552;28;20534;-78
2023/01/06 11:13:06;;;;;;;6.03;5.53;;;16.60;99.90;;;;;;5017140;28;20267;-78
2023/01/06 11:15:38;;;;;;;5.68;5.22;;;17.50;99.90;;;;;;5015953;28;20201;-78
2023/01/06 11:18:16;;;;;;;5.40;5.00;;;18.30;99.90;;;;;;5019717;28;20235;-77
2023/01/06 11:20:43;;;;;;;5.65;5.25;;;18.20;99.90;;;;;;5015471;28;20197;-78
2023/01/06 11:23:21;;;;;;;6.38;5.88;;;17.70;99.90;;;;;;5023285;28;20205;-78
2023/01/06 11:26:21;;;;;;;6.60;6.10;;;17.20;99.90;;;;;;5016591;28;20177;-79
2023/01/06 11:28:51;;;;;;;6.85;6.35;;;16.60;99.90;;;;;;5010538;28;20204;-80
2023/01/06 11:31:20;;;;;;;7.75;7.05;;;16.50;99.90;;;;;;5017920;28;20650;-78
2023/01/06 11:33:50;;;;;;;7.18;6.65;;;16.50;99.90;;;;;;5010826;28;20209;-78
2023/01/06 11:36:18;;;;;;;8.48;7.70;;;16.60;99.90;;;;;;5013634;28;20542;-78
2023/01/06 11:38:47;;;;;;;7.90;7.22;;;16.30;99.90;;;;;;5016332;28;20177;-78
2023/01/06 11:41:24;;;;;;;8.05;7.35;;;16.00;99.90;;;;;;5016854;28;20173;-78
2023/01/06 11:43:53;;;;;;;8.52;7.65;;;15.30;99.90;;;;;;5012658;28;20667;-79
2023/01/06 11:46:24;;;;;;;8.15;7.45;;;15.10;99.90;;;;;;5008863;28;20189;-78
2023/01/06 11:48:57;;;;;;;7.57;6.97;;;14.90;99.90;;;;;;5014480;28;20591;-78
2023/01/06 11:51:39;;;;;;;8.20;7.50;;;15.10;99.90;;;;;;5013000;28;20211;-78
2023/01/06 11:54:30;;;;;;;8.68;7.88;;;15.10;99.90;;;;;;5014065;28;20205;-77
2023/01/06 11:57:15;;;;;;;7.20;6.13;;;15.40;99.90;;;;;;5018611;28;20205;-78
2023/01/06 12:00:12;;;;;;;7.50;6.85;;;15.40;99.90;;;;;;5020030;28;20181;-78
2023/01/06 12:02:50;;;;;;;8.68;7.88;;;15.40;99.90;;;;;;5013082;28;20773;-78
2023/01/06 12:05:26;;;;;;;7.88;7.07;;;15.30;99.90;;;;;;5009990;28;20689;-78
2023/01/06 12:07:53;;;;;;;8.43;7.63;;;15.10;99.90;;;;;;5011321;28;20208;-78
2023/01/06 12:10:24;;;;;;;9.27;8.43;;;14.60;99.90;;;;;;5028406;28;20193;-77
2023/01/06 12:12:50;;;;;;;8.15;7.35;;;14.00;99.90;;;;;;5013893;28;20211;-77
2023/01/06 12:15:18;;;;;;;7.30;6.60;;;13.50;99.90;;;;;;5012626;28;20225;-76
2023/01/06 12:18:00;;;;;;;6.93;6.22;;;13.20;99.90;;;;;;5014033;28;20169;-76
2023/01/06 12:20:37;;;;;;;7.30;6.68;;;12.90;99.90;;;;;;5015162;28;20173;-77
2023/01/06 12:23:10;;;;;;;7.40;6.70;;;12.80;99.90;;;;;;5016041;28;20551;-76
2023/01/06 12:25:42;;;;;;;7.13;5.85;;;12.70;99.90;;;;;;5013760;28;20188;-76
2023/01/06 12:28:33;;;;;;;7.68;6.97;;;12.60;99.90;;;;;;5014455;28;20543;-75
2023/01/06 12:31:05;;;;;;;6.70;6.00;;;12.60;99.90;;;;;;5013929;28;20184;-75
2023/01/06 12:33:58;;;;;;;9.05;8.10;;;12.30;99.90;;;;;;5023489;28;20213;-76
2023/01/06 12:36:41;;;;;;;7.93;6.53;;;12.20;99.90;;;;;;5013152;28;20248;-75
2023/01/06 12:39:18;;;;;;;10.15;6.47;;;12.00;99.90;;;;;;5008836;28;20690;-76
2023/01/06 12:41:48;;;;;;;7.00;6.38;;;12.00;99.90;;;;;;5015350;28;20216;-75
2023/01/06 12:44:29;;;;;;;8.88;7.25;;;11.90;99.90;;;;;;5009699;28;20217;-75
2023/01/06 12:47:15;;;;;;;8.45;7.65;;;11.90;99.90;;;;;;5007944;28;20686;-75
2023/01/06 12:49:49;;;;;;;7.05;6.45;;;12.00;99.90;;;;;;5010611;28;20235;-75
2023/01/06 12:52:23;;;;;;;7.45;6.75;;;12.00;99.90;;;;;;5010889;28;20220;-75
2023/01/06 12:54:54;;;;;;;6.95;6.07;;;12.10;99.90;;;;;;5007931;28;20745;-75
2023/01/06 12:57:56;;;;;;;6.13;5.53;;;12.10;99.90;;;;;;5014042;28;20181;-76
2023/01/06 13:00:21;;;;;;;6.32;5.72;;;12.00;99.90;;;;;;5010769;28;20187;-76
2023/01/06 13:03:11;;;;;;;5.90;5.32;;;12.00;99.90;;;;;;5014451;28;20197;-77
2023/01/06 13:05:53;;;;;;;6.05;5.55;;;11.80;99.90;;;;;;5027217;28;20190;-76